sensor_id;sensor_type;location;lat;lon;timestamp;temperature;humidity
30534;DHT22;17318;52.390;9.754;2023-03-17T00:00:34;8.90;71.80
30534;DHT22;17318;52.390;9.754;2023-03-17T00:03:00;8.90;71.70
30534;DHT22;17318;52.390;9.754;2023-03-17T00:05:30;9.00;71.70
30534;DHT22;17318;52.390;9.754;2023-03-17T00:08:03;9.00;71.60
30534;DHT22;17318;52.390;9.754;2023-03-17T00:10:29;9.00;71.80
30534;DHT22;17318;52.390;9.754;2023-03-17T00:12:55;9.00;71.80
30534;DHT22;17318;52.390;9.754;2023-03-17T00:15:22;9.00;72.00
30534;DHT22;17318;52.390;9.754;2023-03-17T00:17:48;8.90;71.90
30534;DHT22;17318;52.390;9.754;2023-03-17T00:20:24;8.90;72.00
30534;DHT22;17318;52.390;9.754;2023-03-17T00:22:51;8.90;72.00
30534;DHT22;17318;52.390;9.754;2023-03-17T00:25:20;8.90;72.30
30534;DHT22;17318;52.390;9.754;2023-03-17T00:27:46;8.90;72.50
30534;DHT22;17318;52.390;9.754;2023-03-17T00:30:13;8.80;72.60
30534;DHT22;17318;52.390;9.754;2023-03-17T00:32:39;8.80;72.80
30534;DHT22;17318;52.390;9.754;2023-03-17T00:35:14;8.80;72.90
30534;DHT22;17318;52.390;9.754;2023-03-17T00:37:40;8.80;72.80
30534;DHT22;17318;52.390;9.754;2023-03-17T00:40:26;8.80;72.60
30534;DHT22;17318;52.390;9.754;2023-03-17T00:42:57;8.80;72.90
30534;DHT22;17318;52.390;9.754;2023-03-17T00:45:25;8.80;72.90
30534;DHT22;17318;52.390;9.754;2023-03-17T00:47:53;8.80;73.10
30534;DHT22;17318;52.390;9.754;2023-03-17T00:50:22;8.80;73.30
30534;DHT22;17318;52.390;9.754;2023-03-17T00:52:50;8.80;73.40
30534;DHT22;17318;52.390;9.754;2023-03-17T00:55:17;8.80;73.50
30534;DHT22;17318;52.390;9.754;2023-03-17T00:57:44;8.80;73.50
30534;DHT22;17318;52.390;9.754;2023-03-17T01:00:27;8.70;73.50
30534;DHT22;17318;52.390;9.754;2023-03-17T01:02:55;8.70;73.60
30534;DHT22;17318;52.390;9.754;2023-03-17T01:05:23;8.70;74.00
30534;DHT22;17318;52.390;9.754;2023-03-17T01:07:52;8.60;74.10
30534;DHT22;17318;52.390;9.754;2023-03-17T01:10:24;8.60;74.20
30534;DHT22;17318;52.390;9.754;2023-03-17T01:12:52;8.60;74.40
30534;DHT22;17318;52.390;9.754;2023-03-17T01:15:18;8.60;74.40
30534;DHT22;17318;52.390;9.754;2023-03-17T01:17:44;8.70;74.30
30534;DHT22;17318;52.390;9.754;2023-03-17T01:20:18;8.70;74.30
30534;DHT22;17318;52.390;9.754;2023-03-17T01:22:44;8.70;74.60
30534;DHT22;17318;52.390;9.754;2023-03-17T01:25:10;8.70;74.60
30534;DHT22;17318;52.390;9.754;2023-03-17T01:27:37;8.70;74.60
30534;DHT22;17318;52.390;9.754;2023-03-17T01:30:04;8.70;74.50
30534;DHT22;17318;52.390;9.754;2023-03-17T01:32:30;8.70;74.60
30534;DHT22;17318;52.390;9.754;2023-03-17T01:34:56;8.80;74.50
30534;DHT22;17318;52.390;9.754;2023-03-17T01:37:22;8.80;74.60
30534;DHT22;17318;52.390;9.754;2023-03-17T01:39:47;8.60;74.70
30534;DHT22;17318;52.390;9.754;2023-03-17T01:42:13;8.70;74.80
30534;DHT22;17318;52.390;9.754;2023-03-17T01:44:58;8.70;74.90
30534;DHT22;17318;52.390;9.754;2023-03-17T01:47:27;8.70;74.90
30534;DHT22;17318;52.390;9.754;2023-03-17T01:49:59;8.70;75.00
30534;DHT22;17318;52.390;9.754;2023-03-17T01:52:29;8.70;75.30
30534;DHT22;17318;52.390;9.754;2023-03-17T01:55:34;8.70;75.30
30534;DHT22;17318;52.390;9.754;2023-03-17T01:57:54;8.80;75.40
30534;DHT22;17318;52.390;9.754;2023-03-17T02:00:22;8.70;75.60
30534;DHT22;17318;52.390;9.754;2023-03-17T02:02:54;8.70;75.70
30534;DHT22;17318;52.390;9.754;2023-03-17T02:05:23;8.70;75.90
30534;DHT22;17318;52.390;9.754;2023-03-17T02:07:54;8.70;75.90
30534;DHT22;17318;52.390;9.754;2023-03-17T02:10:22;8.70;75.80
30534;DHT22;17318;52.390;9.754;2023-03-17T02:12:55;8.70;75.80
30534;DHT22;17318;52.390;9.754;2023-03-17T02:15:22;8.70;76.00
30534;DHT22;17318;52.390;9.754;2023-03-17T02:17:48;8.70;76.10
30534;DHT22;17318;52.390;9.754;2023-03-17T02:22:45;8.60;76.30
30534;DHT22;17318;52.390;9.754;2023-03-17T02:25:13;8.70;76.40
30534;DHT22;17318;52.390;9.754;2023-03-17T02:27:42;8.70;76.40
30534;DHT22;17318;52.390;9.754;2023-03-17T02:30:10;8.70;76.30
30534;DHT22;17318;52.390;9.754;2023-03-17T02:32:37;8.70;76.00
30534;DHT22;17318;52.390;9.754;2023-03-17T02:35:04;8.80;76.10
30534;DHT22;17318;52.390;9.754;2023-03-17T02:37:30;8.80;76.00
30534;DHT22;17318;52.390;9.754;2023-03-17T02:39:57;8.80;76.20
30534;DHT22;17318;52.390;9.754;2023-03-17T02:42:23;8.80;76.20
30534;DHT22;17318;52.390;9.754;2023-03-17T02:44:49;8.80;76.30
30534;DHT22;17318;52.390;9.754;2023-03-17T02:47:15;8.70;76.50
30534;DHT22;17318;52.390;9.754;2023-03-17T02:49:42;8.70;76.70
30534;DHT22;17318;52.390;9.754;2023-03-17T02:52:08;8.70;76.90
30534;DHT22;17318;52.390;9.754;2023-03-17T02:54:34;8.70;77.00
30534;DHT22;17318;52.390;9.754;2023-03-17T02:57:00;8.60;77.00
30534;DHT22;17318;52.390;9.754;2023-03-17T02:59:26;8.70;77.20
30534;DHT22;17318;52.390;9.754;2023-03-17T03:01:52;8.70;77.20
30534;DHT22;17318;52.390;9.754;2023-03-17T03:04:19;8.70;76.80
30534;DHT22;17318;52.390;9.754;2023-03-17T03:06:45;8.70;77.10
30534;DHT22;17318;52.390;9.754;2023-03-17T03:09:11;8.70;77.10
30534;DHT22;17318;52.390;9.754;2023-03-17T03:11:38;8.70;77.10
30534;DHT22;17318;52.390;9.754;2023-03-17T03:14:04;8.70;77.30
30534;DHT22;17318;52.390;9.754;2023-03-17T03:16:30;8.70;77.30
30534;DHT22;17318;52.390;9.754;2023-03-17T03:18:56;8.70;77.30
30534;DHT22;17318;52.390;9.754;2023-03-17T03:21:22;8.70;77.30
30534;DHT22;17318;52.390;9.754;2023-03-17T03:23:47;8.70;77.30
30534;DHT22;17318;52.390;9.754;2023-03-17T03:26:13;8.80;78.00
30534;DHT22;17318;52.390;9.754;2023-03-17T03:28:39;8.70;77.50
30534;DHT22;17318;52.390;9.754;2023-03-17T03:31:06;8.70;77.50
30534;DHT22;17318;52.390;9.754;2023-03-17T03:33:32;8.80;77.50
30534;DHT22;17318;52.390;9.754;2023-03-17T03:35:58;8.70;77.60
30534;DHT22;17318;52.390;9.754;2023-03-17T03:38:25;8.70;77.60
30534;DHT22;17318;52.390;9.754;2023-03-17T03:40:50;8.70;77.70
30534;DHT22;17318;52.390;9.754;2023-03-17T03:43:17;8.70;77.60
30534;DHT22;17318;52.390;9.754;2023-03-17T03:45:42;8.70;77.70
30534;DHT22;17318;52.390;9.754;2023-03-17T03:48:08;8.70;77.80
30534;DHT22;17318;52.390;9.754;2023-03-17T03:50:34;8.70;77.90
30534;DHT22;17318;52.390;9.754;2023-03-17T03:53:00;8.60;77.90
30534;DHT22;17318;52.390;9.754;2023-03-17T03:55:25;8.60;78.20
30534;DHT22;17318;52.390;9.754;2023-03-17T03:57:51;8.60;78.10
30534;DHT22;17318;52.390;9.754;2023-03-17T04:00:17;8.60;78.30
30534;DHT22;17318;52.390;9.754;2023-03-17T04:02:43;8.50;78.30
30534;DHT22;17318;52.390;9.754;2023-03-17T04:05:13;8.60;78.50
30534;DHT22;17318;52.390;9.754;2023-03-17T04:07:40;8.50;78.40
30534;DHT22;17318;52.390;9.754;2023-03-17T04:10:09;8.40;78.70
30534;DHT22;17318;52.390;9.754;2023-03-17T04:12:34;8.40;78.70
30534;DHT22;17318;52.390;9.754;2023-03-17T04:15:00;8.40;79.00
30534;DHT22;17318;52.390;9.754;2023-03-17T04:17:26;8.40;79.00
30534;DHT22;17318;52.390;9.754;2023-03-17T04:19:52;8.40;79.00
30534;DHT22;17318;52.390;9.754;2023-03-17T04:22:18;8.40;79.00
30534;DHT22;17318;52.390;9.754;2023-03-17T04:24:43;8.40;78.90
30534;DHT22;17318;52.390;9.754;2023-03-17T04:27:09;8.30;78.80
30534;DHT22;17318;52.390;9.754;2023-03-17T04:29:35;8.40;79.10
30534;DHT22;17318;52.390;9.754;2023-03-17T04:32:01;8.30;79.40
30534;DHT22;17318;52.390;9.754;2023-03-17T04:34:28;8.30;79.60
30534;DHT22;17318;52.390;9.754;2023-03-17T04:36:53;8.30;79.50
30534;DHT22;17318;52.390;9.754;2023-03-17T04:39:19;8.30;79.40
30534;DHT22;17318;52.390;9.754;2023-03-17T04:41:45;8.30;79.60
30534;DHT22;17318;52.390;9.754;2023-03-17T04:44:11;8.30;79.20
30534;DHT22;17318;52.390;9.754;2023-03-17T04:46:36;8.30;79.50
30534;DHT22;17318;52.390;9.754;2023-03-17T04:49:03;8.30;79.30
30534;DHT22;17318;52.390;9.754;2023-03-17T04:51:29;8.30;79.50
30534;DHT22;17318;52.390;9.754;2023-03-17T04:53:54;8.30;80.00
30534;DHT22;17318;52.390;9.754;2023-03-17T04:56:20;8.30;79.60
30534;DHT22;17318;52.390;9.754;2023-03-17T04:58:46;8.30;79.40
30534;DHT22;17318;52.390;9.754;2023-03-17T05:01:12;8.30;79.50
30534;DHT22;17318;52.390;9.754;2023-03-17T05:03:38;8.30;79.60
30534;DHT22;17318;52.390;9.754;2023-03-17T05:06:04;8.30;79.40
30534;DHT22;17318;52.390;9.754;2023-03-17T05:08:31;8.30;79.30
30534;DHT22;17318;52.390;9.754;2023-03-17T05:10:57;8.30;79.20
30534;DHT22;17318;52.390;9.754;2023-03-17T05:13:24;8.30;79.30
30534;DHT22;17318;52.390;9.754;2023-03-17T05:15:53;8.50;79.40
30534;DHT22;17318;52.390;9.754;2023-03-17T05:18:20;8.30;79.20
30534;DHT22;17318;52.390;9.754;2023-03-17T05:20:46;8.30;79.20
30534;DHT22;17318;52.390;9.754;2023-03-17T05:23:13;8.30;79.20
30534;DHT22;17318;52.390;9.754;2023-03-17T05:25:38;8.30;79.10
30534;DHT22;17318;52.390;9.754;2023-03-17T05:28:06;8.40;79.70
30534;DHT22;17318;52.390;9.754;2023-03-17T05:30:33;8.30;79.10
30534;DHT22;17318;52.390;9.754;2023-03-17T05:33:01;8.40;79.30
30534;DHT22;17318;52.390;9.754;2023-03-17T05:35:27;8.30;79.20
30534;DHT22;17318;52.390;9.754;2023-03-17T05:37:53;8.30;79.70
30534;DHT22;17318;52.390;9.754;2023-03-17T05:40:19;8.30;79.30
30534;DHT22;17318;52.390;9.754;2023-03-17T05:42:45;8.30;79.10
30534;DHT22;17318;52.390;9.754;2023-03-17T05:45:11;8.40;79.00
30534;DHT22;17318;52.390;9.754;2023-03-17T05:47:37;8.40;79.00
30534;DHT22;17318;52.390;9.754;2023-03-17T05:50:04;8.30;79.20
30534;DHT22;17318;52.390;9.754;2023-03-17T05:52:30;8.30;79.20
30534;DHT22;17318;52.390;9.754;2023-03-17T05:54:56;8.30;79.20
30534;DHT22;17318;52.390;9.754;2023-03-17T05:57:22;8.40;79.10
30534;DHT22;17318;52.390;9.754;2023-03-17T05:59:48;8.40;79.10
30534;DHT22;17318;52.390;9.754;2023-03-17T06:02:15;8.40;79.30
30534;DHT22;17318;52.390;9.754;2023-03-17T06:04:41;8.50;79.40
30534;DHT22;17318;52.390;9.754;2023-03-17T06:07:07;8.40;79.30
30534;DHT22;17318;52.390;9.754;2023-03-17T06:09:34;8.40;79.40
30534;DHT22;17318;52.390;9.754;2023-03-17T06:12:00;8.40;79.40
30534;DHT22;17318;52.390;9.754;2023-03-17T06:14:26;8.40;79.40
30534;DHT22;17318;52.390;9.754;2023-03-17T06:16:52;8.30;79.40
30534;DHT22;17318;52.390;9.754;2023-03-17T06:19:17;8.30;79.70
30534;DHT22;17318;52.390;9.754;2023-03-17T06:21:43;8.40;79.70
30534;DHT22;17318;52.390;9.754;2023-03-17T06:24:09;8.40;79.60
30534;DHT22;17318;52.390;9.754;2023-03-17T06:26:35;8.40;79.50
30534;DHT22;17318;52.390;9.754;2023-03-17T06:29:04;8.40;79.70
30534;DHT22;17318;52.390;9.754;2023-03-17T06:31:33;8.40;79.80
30534;DHT22;17318;52.390;9.754;2023-03-17T06:34:00;8.40;80.30
30534;DHT22;17318;52.390;9.754;2023-03-17T06:36:25;8.40;80.00
30534;DHT22;17318;52.390;9.754;2023-03-17T06:38:51;8.40;79.80
30534;DHT22;17318;52.390;9.754;2023-03-17T06:41:17;8.50;79.80
30534;DHT22;17318;52.390;9.754;2023-03-17T06:43:43;8.50;79.80
30534;DHT22;17318;52.390;9.754;2023-03-17T06:46:09;8.50;79.50
30534;DHT22;17318;52.390;9.754;2023-03-17T06:48:35;8.60;79.60
30534;DHT22;17318;52.390;9.754;2023-03-17T06:51:01;8.60;79.80
30534;DHT22;17318;52.390;9.754;2023-03-17T06:53:27;8.70;79.40
30534;DHT22;17318;52.390;9.754;2023-03-17T06:55:53;8.70;79.20
30534;DHT22;17318;52.390;9.754;2023-03-17T06:58:18;8.80;79.00
30534;DHT22;17318;52.390;9.754;2023-03-17T07:00:45;8.80;78.90
30534;DHT22;17318;52.390;9.754;2023-03-17T07:03:13;8.80;78.70
30534;DHT22;17318;52.390;9.754;2023-03-17T07:05:40;8.90;78.50
30534;DHT22;17318;52.390;9.754;2023-03-17T07:08:06;8.90;78.40
30534;DHT22;17318;52.390;9.754;2023-03-17T07:10:33;9.00;78.30
30534;DHT22;17318;52.390;9.754;2023-03-17T07:12:58;9.10;78.20
30534;DHT22;17318;52.390;9.754;2023-03-17T07:15:24;9.40;78.00
30534;DHT22;17318;52.390;9.754;2023-03-17T07:17:50;9.20;77.60
30534;DHT22;17318;52.390;9.754;2023-03-17T07:20:16;9.20;77.40
30534;DHT22;17318;52.390;9.754;2023-03-17T07:22:42;9.30;77.50
30534;DHT22;17318;52.390;9.754;2023-03-17T07:25:08;9.40;77.50
30534;DHT22;17318;52.390;9.754;2023-03-17T07:27:34;9.40;77.30
30534;DHT22;17318;52.390;9.754;2023-03-17T07:30:00;9.70;77.80
30534;DHT22;17318;52.390;9.754;2023-03-17T07:32:29;9.50;76.70
30534;DHT22;17318;52.390;9.754;2023-03-17T07:34:55;9.70;76.70
30534;DHT22;17318;52.390;9.754;2023-03-17T07:37:22;9.80;76.70
30534;DHT22;17318;52.390;9.754;2023-03-17T07:39:48;9.80;76.40
30534;DHT22;17318;52.390;9.754;2023-03-17T07:42:14;9.80;76.40
30534;DHT22;17318;52.390;9.754;2023-03-17T07:44:41;9.90;76.40
30534;DHT22;17318;52.390;9.754;2023-03-17T07:47:09;10.00;75.20
30534;DHT22;17318;52.390;9.754;2023-03-17T07:49:35;10.10;74.90
30534;DHT22;17318;52.390;9.754;2023-03-17T07:52:00;10.20;74.90
30534;DHT22;17318;52.390;9.754;2023-03-17T07:54:26;10.30;74.50
30534;DHT22;17318;52.390;9.754;2023-03-17T07:56:54;10.40;74.40
30534;DHT22;17318;52.390;9.754;2023-03-17T07:59:20;10.70;74.20
30534;DHT22;17318;52.390;9.754;2023-03-17T08:01:46;10.60;73.40
30534;DHT22;17318;52.390;9.754;2023-03-17T08:04:12;10.80;73.30
30534;DHT22;17318;52.390;9.754;2023-03-17T08:06:39;10.90;73.40
30534;DHT22;17318;52.390;9.754;2023-03-17T08:09:09;11.10;72.70
30534;DHT22;17318;52.390;9.754;2023-03-17T08:11:37;11.20;72.70
30534;DHT22;17318;52.390;9.754;2023-03-17T08:14:04;11.20;71.80
30534;DHT22;17318;52.390;9.754;2023-03-17T08:16:30;11.40;72.10
30534;DHT22;17318;52.390;9.754;2023-03-17T08:18:56;11.50;72.00
30534;DHT22;17318;52.390;9.754;2023-03-17T08:21:24;11.50;71.40
30534;DHT22;17318;52.390;9.754;2023-03-17T08:23:52;11.60;71.10
30534;DHT22;17318;52.390;9.754;2023-03-17T08:26:18;11.80;71.10
30534;DHT22;17318;52.390;9.754;2023-03-17T08:28:45;11.80;70.70
30534;DHT22;17318;52.390;9.754;2023-03-17T08:31:17;12.00;71.00
30534;DHT22;17318;52.390;9.754;2023-03-17T08:33:49;12.10;71.00
30534;DHT22;17318;52.390;9.754;2023-03-17T08:36:16;12.20;69.90
30534;DHT22;17318;52.390;9.754;2023-03-17T08:38:44;12.20;69.40
30534;DHT22;17318;52.390;9.754;2023-03-17T08:41:13;12.20;69.40
30534;DHT22;17318;52.390;9.754;2023-03-17T08:43:39;12.30;69.50
30534;DHT22;17318;52.390;9.754;2023-03-17T08:46:15;12.50;69.00
30534;DHT22;17318;52.390;9.754;2023-03-17T08:48:42;12.60;69.70
30534;DHT22;17318;52.390;9.754;2023-03-17T08:51:07;12.80;68.60
30534;DHT22;17318;52.390;9.754;2023-03-17T08:53:34;12.80;68.20
30534;DHT22;17318;52.390;9.754;2023-03-17T08:56:01;12.90;68.50
30534;DHT22;17318;52.390;9.754;2023-03-17T08:58:27;13.10;68.10
30534;DHT22;17318;52.390;9.754;2023-03-17T09:00:53;13.20;68.10
30534;DHT22;17318;52.390;9.754;2023-03-17T09:03:20;13.40;68.20
30534;DHT22;17318;52.390;9.754;2023-03-17T09:05:47;13.50;67.20
30534;DHT22;17318;52.390;9.754;2023-03-17T09:08:13;13.70;67.10
30534;DHT22;17318;52.390;9.754;2023-03-17T09:10:39;14.30;66.80
30534;DHT22;17318;52.390;9.754;2023-03-17T09:13:04;15.10;65.20
30534;DHT22;17318;52.390;9.754;2023-03-17T09:15:31;15.70;64.00
30534;DHT22;17318;52.390;9.754;2023-03-17T09:17:58;16.40;62.50
30534;DHT22;17318;52.390;9.754;2023-03-17T09:20:25;16.90;62.30
30534;DHT22;17318;52.390;9.754;2023-03-17T09:22:51;17.40;59.90
30534;DHT22;17318;52.390;9.754;2023-03-17T09:25:18;18.40;61.30
30534;DHT22;17318;52.390;9.754;2023-03-17T09:27:44;19.10;57.90
30534;DHT22;17318;52.390;9.754;2023-03-17T09:30:10;20.00;56.00
30534;DHT22;17318;52.390;9.754;2023-03-17T09:32:38;20.70;55.50
30534;DHT22;17318;52.390;9.754;2023-03-17T09:35:04;20.70;53.30
30534;DHT22;17318;52.390;9.754;2023-03-17T09:37:31;21.20;52.90
30534;DHT22;17318;52.390;9.754;2023-03-17T09:39:59;21.80;52.40
30534;DHT22;17318;52.390;9.754;2023-03-17T09:45:33;22.40;50.40
30534;DHT22;17318;52.390;9.754;2023-03-17T09:50:46;22.80;47.40
30534;DHT22;17318;52.390;9.754;2023-03-17T09:53:26;22.70;47.40
30534;DHT22;17318;52.390;9.754;2023-03-17T09:55:56;23.10;46.40
30534;DHT22;17318;52.390;9.754;2023-03-17T09:58:31;23.50;46.60
30534;DHT22;17318;52.390;9.754;2023-03-17T10:00:58;23.70;45.60
30534;DHT22;17318;52.390;9.754;2023-03-17T10:03:24;23.70;45.00
30534;DHT22;17318;52.390;9.754;2023-03-17T10:05:52;23.60;45.40
30534;DHT22;17318;52.390;9.754;2023-03-17T10:08:41;23.40;44.20
30534;DHT22;17318;52.390;9.754;2023-03-17T10:11:13;22.90;44.50
30534;DHT22;17318;52.390;9.754;2023-03-17T10:14:03;23.00;44.00
30534;DHT22;17318;52.390;9.754;2023-03-17T10:17:09;23.20;43.90
30534;DHT22;17318;52.390;9.754;2023-03-17T10:22:27;23.60;43.20
30534;DHT22;17318;52.390;9.754;2023-03-17T10:25:02;24.00;44.00
30534;DHT22;17318;52.390;9.754;2023-03-17T10:27:33;23.40;43.30
30534;DHT22;17318;52.390;9.754;2023-03-17T10:30:00;23.50;43.90
30534;DHT22;17318;52.390;9.754;2023-03-17T10:32:27;23.50;43.00
30534;DHT22;17318;52.390;9.754;2023-03-17T10:34:55;23.40;43.50
30534;DHT22;17318;52.390;9.754;2023-03-17T10:37:23;23.10;42.50
30534;DHT22;17318;52.390;9.754;2023-03-17T10:39:53;23.00;43.60
30534;DHT22;17318;52.390;9.754;2023-03-17T10:42:27;23.30;43.40
30534;DHT22;17318;52.390;9.754;2023-03-17T10:47:39;23.20;42.60
30534;DHT22;17318;52.390;9.754;2023-03-17T10:52:40;23.90;43.40
30534;DHT22;17318;52.390;9.754;2023-03-17T10:55:08;24.20;42.20
30534;DHT22;17318;52.390;9.754;2023-03-17T10:57:38;24.50;41.80
30534;DHT22;17318;52.390;9.754;2023-03-17T11:00:14;24.70;41.70
30534;DHT22;17318;52.390;9.754;2023-03-17T11:02:56;25.00;41.80
30534;DHT22;17318;52.390;9.754;2023-03-17T11:05:25;25.00;41.40
30534;DHT22;17318;52.390;9.754;2023-03-17T11:08:18;24.90;41.50
30534;DHT22;17318;52.390;9.754;2023-03-17T11:10:44;25.50;41.90
30534;DHT22;17318;52.390;9.754;2023-03-17T11:13:15;25.50;40.70
30534;DHT22;17318;52.390;9.754;2023-03-17T11:15:51;25.30;41.00
30534;DHT22;17318;52.390;9.754;2023-03-17T11:18:23;25.40;40.60
30534;DHT22;17318;52.390;9.754;2023-03-17T11:21:12;24.90;41.20
30534;DHT22;17318;52.390;9.754;2023-03-17T11:23:52;25.50;41.10
30534;DHT22;17318;52.390;9.754;2023-03-17T11:29:22;25.10;40.50
30534;DHT22;17318;52.390;9.754;2023-03-17T11:34:42;25.20;40.30
30534;DHT22;17318;52.390;9.754;2023-03-17T11:40:20;24.70;40.80
30534;DHT22;17318;52.390;9.754;2023-03-17T11:46:11;24.70;41.50
30534;DHT22;17318;52.390;9.754;2023-03-17T11:48:47;24.40;41.30
30534;DHT22;17318;52.390;9.754;2023-03-17T11:51:27;23.70;41.30
30534;DHT22;17318;52.390;9.754;2023-03-17T11:56:53;23.00;42.20
30534;DHT22;17318;52.390;9.754;2023-03-17T12:02:03;22.50;43.40
30534;DHT22;17318;52.390;9.754;2023-03-17T12:04:37;22.10;43.70
30534;DHT22;17318;52.390;9.754;2023-03-17T12:07:20;22.00;43.90
30534;DHT22;17318;52.390;9.754;2023-03-17T12:09:55;21.90;44.20
30534;DHT22;17318;52.390;9.754;2023-03-17T12:12:30;21.50;44.70
30534;DHT22;17318;52.390;9.754;2023-03-17T12:15:00;21.20;45.20
30534;DHT22;17318;52.390;9.754;2023-03-17T12:17:38;21.00;45.40
30534;DHT22;17318;52.390;9.754;2023-03-17T12:20:13;20.90;45.50
30534;DHT22;17318;52.390;9.754;2023-03-17T12:23:14;20.60;45.90
30534;DHT22;17318;52.390;9.754;2023-03-17T12:25:58;20.60;46.30
30534;DHT22;17318;52.390;9.754;2023-03-17T12:28:29;20.50;46.60
30534;DHT22;17318;52.390;9.754;2023-03-17T12:31:47;20.40;46.90
30534;DHT22;17318;52.390;9.754;2023-03-17T12:34:24;20.40;47.30
30534;DHT22;17318;52.390;9.754;2023-03-17T12:36:52;20.40;47.20
30534;DHT22;17318;52.390;9.754;2023-03-17T12:39:24;20.00;47.40
30534;DHT22;17318;52.390;9.754;2023-03-17T12:47:23;19.80;48.40
30534;DHT22;17318;52.390;9.754;2023-03-17T12:55:37;19.40;49.20
30534;DHT22;17318;52.390;9.754;2023-03-17T12:58:21;19.20;49.30
30534;DHT22;17318;52.390;9.754;2023-03-17T13:11:54;19.10;50.10
30534;DHT22;17318;52.390;9.754;2023-03-17T13:22:40;19.00;50.00
30534;DHT22;17318;52.390;9.754;2023-03-17T13:25:28;18.90;50.50
30534;DHT22;17318;52.390;9.754;2023-03-17T13:28:16;18.90;50.60
30534;DHT22;17318;52.390;9.754;2023-03-17T13:33:32;19.00;50.90
30534;DHT22;17318;52.390;9.754;2023-03-17T13:38:40;19.00;51.10
30534;DHT22;17318;52.390;9.754;2023-03-17T13:42:29;19.00;51.20
30534;DHT22;17318;52.390;9.754;2023-03-17T13:47:35;19.00;51.40
30534;DHT22;17318;52.390;9.754;2023-03-17T13:50:14;18.90;51.40
30534;DHT22;17318;52.390;9.754;2023-03-17T14:00:39;18.70;52.20
30534;DHT22;17318;52.390;9.754;2023-03-17T14:03:15;18.70;52.40
30534;DHT22;17318;52.390;9.754;2023-03-17T14:05:46;18.70;52.60
30534;DHT22;17318;52.390;9.754;2023-03-17T14:08:36;18.70;52.60
30534;DHT22;17318;52.390;9.754;2023-03-17T14:11:06;18.70;52.70
30534;DHT22;17318;52.390;9.754;2023-03-17T14:13:46;18.70;53.00
30534;DHT22;17318;52.390;9.754;2023-03-17T14:16:19;18.60;52.90
30534;DHT22;17318;52.390;9.754;2023-03-17T14:18:48;18.60;52.90
30534;DHT22;17318;52.390;9.754;2023-03-17T14:21:24;18.60;53.20
30534;DHT22;17318;52.390;9.754;2023-03-17T14:23:59;18.60;53.20
30534;DHT22;17318;52.390;9.754;2023-03-17T14:26:28;18.60;53.20
30534;DHT22;17318;52.390;9.754;2023-03-17T14:28:54;18.60;53.10
30534;DHT22;17318;52.390;9.754;2023-03-17T14:31:25;18.60;53.10
30534;DHT22;17318;52.390;9.754;2023-03-17T14:33:54;18.70;53.10
30534;DHT22;17318;52.390;9.754;2023-03-17T14:36:20;18.70;53.10
30534;DHT22;17318;52.390;9.754;2023-03-17T14:38:48;18.60;53.20
30534;DHT22;17318;52.390;9.754;2023-03-17T14:41:18;18.60;53.30
30534;DHT22;17318;52.390;9.754;2023-03-17T14:43:45;18.60;53.20
30534;DHT22;17318;52.390;9.754;2023-03-17T14:49:02;18.50;53.40
30534;DHT22;17318;52.390;9.754;2023-03-17T14:51:35;18.40;53.40
30534;DHT22;17318;52.390;9.754;2023-03-17T14:54:09;18.40;53.60
30534;DHT22;17318;52.390;9.754;2023-03-17T14:56:41;18.30;53.70
30534;DHT22;17318;52.390;9.754;2023-03-17T14:59:29;18.30;53.80
30534;DHT22;17318;52.390;9.754;2023-03-17T15:01:55;18.30;53.90
30534;DHT22;17318;52.390;9.754;2023-03-17T15:04:27;18.30;53.70
30534;DHT22;17318;52.390;9.754;2023-03-17T15:07:00;18.20;53.60
30534;DHT22;17318;52.390;9.754;2023-03-17T15:09:41;18.10;53.60
30534;DHT22;17318;52.390;9.754;2023-03-17T15:12:20;18.20;53.80
30534;DHT22;17318;52.390;9.754;2023-03-17T15:14:51;18.20;53.90
30534;DHT22;17318;52.390;9.754;2023-03-17T15:17:20;18.20;53.70
30534;DHT22;17318;52.390;9.754;2023-03-17T15:19:51;18.20;53.70
30534;DHT22;17318;52.390;9.754;2023-03-17T15:27:45;18.10;53.70
30534;DHT22;17318;52.390;9.754;2023-03-17T15:30:12;18.00;53.90
30534;DHT22;17318;52.390;9.754;2023-03-17T15:32:38;18.00;53.90
30534;DHT22;17318;52.390;9.754;2023-03-17T15:35:05;18.00;54.20
30534;DHT22;17318;52.390;9.754;2023-03-17T15:37:33;18.00;54.00
30534;DHT22;17318;52.390;9.754;2023-03-17T15:40:00;17.90;53.90
30534;DHT22;17318;52.390;9.754;2023-03-17T15:42:31;17.90;54.10
30534;DHT22;17318;52.390;9.754;2023-03-17T15:44:57;17.80;54.00
30534;DHT22;17318;52.390;9.754;2023-03-17T15:47:27;17.80;54.20
30534;DHT22;17318;52.390;9.754;2023-03-17T15:49:59;17.70;54.40
30534;DHT22;17318;52.390;9.754;2023-03-17T15:52:27;17.70;54.50
30534;DHT22;17318;52.390;9.754;2023-03-17T15:54:57;17.60;54.60
30534;DHT22;17318;52.390;9.754;2023-03-17T15:57:23;17.60;54.60
30534;DHT22;17318;52.390;9.754;2023-03-17T15:59:50;17.70;54.70
30534;DHT22;17318;52.390;9.754;2023-03-17T16:04:52;17.60;54.90
30534;DHT22;17318;52.390;9.754;2023-03-17T16:07:18;17.50;54.70
30534;DHT22;17318;52.390;9.754;2023-03-17T16:09:45;17.60;54.80
30534;DHT22;17318;52.390;9.754;2023-03-17T16:12:14;17.50;54.80
30534;DHT22;17318;52.390;9.754;2023-03-17T16:14:40;17.50;54.90
30534;DHT22;17318;52.390;9.754;2023-03-17T16:17:27;17.50;54.90
30534;DHT22;17318;52.390;9.754;2023-03-17T16:19:57;17.50;54.80
30534;DHT22;17318;52.390;9.754;2023-03-17T16:22:41;17.40;54.70
30534;DHT22;17318;52.390;9.754;2023-03-17T16:25:20;17.30;54.90
30534;DHT22;17318;52.390;9.754;2023-03-17T16:27:47;17.30;55.10
30534;DHT22;17318;52.390;9.754;2023-03-17T16:30:27;17.30;55.00
30534;DHT22;17318;52.390;9.754;2023-03-17T16:32:55;17.30;55.20
30534;DHT22;17318;52.390;9.754;2023-03-17T16:35:23;17.20;55.20
30534;DHT22;17318;52.390;9.754;2023-03-17T16:37:49;17.20;55.20
30534;DHT22;17318;52.390;9.754;2023-03-17T16:40:28;17.20;55.30
30534;DHT22;17318;52.390;9.754;2023-03-17T16:42:57;17.20;55.40
30534;DHT22;17318;52.390;9.754;2023-03-17T16:45:31;17.20;55.40
30534;DHT22;17318;52.390;9.754;2023-03-17T16:47:58;17.10;55.40
30534;DHT22;17318;52.390;9.754;2023-03-17T16:50:27;17.10;55.50
30534;DHT22;17318;52.390;9.754;2023-03-17T16:52:53;17.10;55.50
30534;DHT22;17318;52.390;9.754;2023-03-17T16:55:19;17.10;55.60
30534;DHT22;17318;52.390;9.754;2023-03-17T16:57:47;17.10;55.70
30534;DHT22;17318;52.390;9.754;2023-03-17T17:00:20;17.10;55.80
30534;DHT22;17318;52.390;9.754;2023-03-17T17:02:46;17.10;55.50
30534;DHT22;17318;52.390;9.754;2023-03-17T17:07:38;17.00;55.80
30534;DHT22;17318;52.390;9.754;2023-03-17T17:10:04;17.00;56.00
30534;DHT22;17318;52.390;9.754;2023-03-17T17:12:30;16.90;56.00
30534;DHT22;17318;52.390;9.754;2023-03-17T17:14:55;17.00;56.20
30534;DHT22;17318;52.390;9.754;2023-03-17T17:17:21;16.90;56.30
30534;DHT22;17318;52.390;9.754;2023-03-17T17:19:47;16.80;56.20
30534;DHT22;17318;52.390;9.754;2023-03-17T17:22:13;16.80;56.40
30534;DHT22;17318;52.390;9.754;2023-03-17T17:24:38;16.80;56.50